Airfield :
LOGIN :

Register | Disclaimer

   EN    FR    IT 

 










Legend :    VFR   Marginal VFR   IFR   Intensive IFR   Very Intensive IFR
Visi :
Ceiling :
>= 8 km
>= 3000ft
5 to 8 km
1000 to 3000 ft
1500m to 5 km
500 to 1000 ft
800 to 1500m
200 to 500 ft
< 800m
< 200 ft
Symbols :   Thunderstorms  Fog  Heavy snow  Heavy precipitations  Wind > 20 kt
SIGMETs :     Misc.  Thunderstorms  Icing  Turbulence  Mountain Waves  Volcanic Ashes







- Airport Elevation : 1000 ft
- IATA code : PEV


LHPP - Pécs Pogany

CURRENT METAR :
  • 211645Z 31007KT 9999 -RA SCT016 OVC083 11/09 Q1017

EXPIRED METARs :
  • 211615Z 29005KT 9999 -RA SCT016 OVC083 11/09 Q1017
  • 211545Z 28005KT 9999 -RA SCT016 OVC083 11/09 Q1017
  • 211515Z 29006KT 9999 -RA SCT016 OVC083 11/09 Q1017
  • 211451Z AUTO 31010KT //// ////// 11/09 Q1017

TAF TAF LHPP
Valid from the 21 at 15:00 until the 22 at 00:00 UTC


211415Z 2115/2124 33011KT 9999 SCT020 OVC080
TEMPO 2115/2124 32010KT 6000 -RA -DZ BKN010 OVC040
No reported NOTAMs for that airfield.
1 SIGMET reported for the Budapest FIR (LHCC) :
 
Severe icing
LHCC SIGMET 06 VALID 211715/212115 LHBP
LHCC BUDAPEST FIR SEV ICE FCST BTN E01700 AND E02000 7000FT/FL110 STNR WKN=



MET'MAP, your aeronautical weather chart ! - Copyright ORBIFLY December 2007 - Disclaimer

ORBIFLY MET'MAP TEAM :

Programming & Development : Alexandra Zaïnal
Concept & Development : Baudouin d'Aumeries
Co-Development & Prog : Marc-Olivier Méhu
Technical & hardware support : Manuel Goepfert

Contact : metmap@orbifly.com




SOURCES & CREDITS :

   NOAA